Bahia Laura, Argentina
Current Conditions -  °F | °C
As of 11:00 AM on Sunday 23 Nov 2014 (Local Time) from SAVC Reporting Station
Scattered Clouds Scattered Clouds  
Wind Chill: 66°   Ceiling: Unl
Heat Index: 66°   Visibility: 6mi
Dew Point: 39°   Wind: 17mph
Humidity: 37%   Direction: 270°W
Pressure: 29.5"   Gusts: 29mph
Location:  48.4°S, 66.48°W
Report Text: SAVC 231400Z 27015G25KT 9999 FEW035 SCT100 19/04 Q0999
Loading
Personal Weather Stations






























Interactive Weather Map New forecast layout! Learn more

10-Day Weather Forecast

Advertisements
Track Severe Weather on mobile